Time;durP1;ratioP1;P1;durP2;ratioP2;P2;SDS_P1;SDS_P2;PMS_P1;PMS_P2;Temp;Humidity;BMP_temperature;BMP_pressure;BME280_temperature;BME280_humidity;BME280_pressure;Samples;Min_cycle;Max_cycle;Signal;HPM_P1;HPM_P2
2022/01/26 00:07:18;;;;;;;229.38;26.63;;;-0.40;99.90;;;;;;4949634;28;20094;-65
2022/01/26 00:09:44;;;;;;;163.82;23.88;;;-0.40;99.90;;;;;;4950810;28;20142;-65
2022/01/26 00:12:10;;;;;;;176.30;23.83;;;-0.40;99.90;;;;;;4950335;28;20457;-65
2022/01/26 00:14:40;;;;;;;126.68;24.50;;;-0.50;99.90;;;;;;4950380;28;20039;-65
2022/01/26 00:17:06;;;;;;;75.72;22.42;;;-0.50;99.90;;;;;;4949468;28;20031;-64
2022/01/26 00:19:47;;;;;;;72.05;23.08;;;-0.40;99.90;;;;;;4949035;28;20381;-63
2022/01/26 00:22:31;;;;;;;73.05;21.90;;;-0.40;99.90;;;;;;4950286;28;20094;-64
2022/01/26 00:28:06;;;;;;;71.85;19.70;;;-0.30;99.90;;;;;;4949257;29;20514;-64
2022/01/26 00:41:05;;;;;;;77.55;21.80;;;-0.40;99.90;;;;;;4941732;28;20536;-64
2022/01/26 00:43:32;;;;;;;71.68;21.45;;;-0.40;99.90;;;;;;4950619;28;20121;-65
2022/01/26 00:45:59;;;;;;;199.93;24.27;;;-0.50;99.90;;;;;;4949796;28;20035;-67
2022/01/26 00:48:27;;;;;;;150.45;20.98;;;-0.50;99.90;;;;;;4950884;28;20468;-66
2022/01/26 00:50:54;;;;;;;71.07;20.40;;;-0.50;99.90;;;;;;4955548;28;20448;-65
2022/01/26 00:53:28;;;;;;;74.43;21.95;;;-0.40;99.90;;;;;;4951793;28;20033;-66
2022/01/26 00:55:54;;;;;;;72.78;21.60;;;-0.50;99.90;;;;;;4950387;29;20039;-64
2022/01/26 00:58:20;;;;;;;83.30;19.80;;;-0.50;99.90;;;;;;4951995;28;20033;-64
2022/01/26 01:00:45;;;;;;;102.40;20.10;;;-0.50;99.90;;;;;;4950487;28;20114;-65
2022/01/26 01:03:11;;;;;;;236.65;24.40;;;-0.40;99.90;;;;;;4950742;28;20034;-64
2022/01/26 01:05:49;;;;;;;227.25;24.08;;;-0.50;99.90;;;;;;4953231;28;20515;-66
2022/01/26 01:08:18;;;;;;;124.97;19.83;;;-0.60;99.90;;;;;;4948857;28;20039;-64
2022/01/26 01:10:46;;;;;;;120.10;22.20;;;-0.70;99.90;;;;;;4949946;28;20039;-63
2022/01/26 01:13:19;;;;;;;170.43;22.73;;;-0.70;99.90;;;;;;4949051;28;21446;-66
2022/01/26 01:15:47;;;;;;;152.20;21.92;;;-0.60;99.90;;;;;;4950133;28;20042;-65
2022/01/26 01:18:40;;;;;;;197.77;20.42;;;-0.70;99.90;;;;;;4948871;28;20034;-65
2022/01/26 01:31:52;;;;;;;201.20;25.23;;;-1.30;99.90;;;;;;4948467;28;20027;-66
2022/01/26 01:34:20;;;;;;;175.63;25.05;;;-1.30;99.90;;;;;;4952296;28;20440;-66
2022/01/26 01:36:50;;;;;;;195.48;27.52;;;-1.30;99.90;;;;;;4954227;28;20037;-65
2022/01/26 01:39:17;;;;;;;209.45;26.67;;;-1.40;99.90;;;;;;4950120;28;20035;-65
2022/01/26 01:41:45;;;;;;;262.42;30.45;;;-1.40;99.90;;;;;;4964245;28;20077;-65
2022/01/26 01:44:11;;;;;;;226.52;27.73;;;-1.50;99.90;;;;;;4949151;28;20051;-65
2022/01/26 01:46:38;;;;;;;282.05;30.45;;;-1.60;99.90;;;;;;4949182;28;20381;-70
2022/01/26 01:49:05;;;;;;;265.45;30.77;;;-1.70;99.90;;;;;;4948713;28;20480;-64
2022/01/26 01:51:35;;;;;;;180.82;26.73;;;-1.80;99.90;;;;;;4949110;28;20039;-66
2022/01/26 01:54:02;;;;;;;307.40;31.52;;;-1.80;99.90;;;;;;4953942;28;20027;-68
2022/01/26 01:56:28;;;;;;;183.63;25.38;;;-1.90;99.90;;;;;;4949182;29;20047;-66
2022/01/26 01:58:59;;;;;;;157.77;25.35;;;-1.90;99.90;;;;;;4949147;28;20039;-65
2022/01/26 02:01:26;;;;;;;163.05;27.20;;;-1.90;99.90;;;;;;4949443;28;20039;-64
2022/01/26 02:03:53;;;;;;;150.63;24.35;;;-1.90;99.90;;;;;;4949943;28;20035;-64
2022/01/26 02:06:19;;;;;;;147.48;26.23;;;-1.90;99.90;;;;;;4948145;28;20603;-66
2022/01/26 02:08:45;;;;;;;156.60;24.70;;;-1.90;99.90;;;;;;4949412;28;20165;-65
2022/01/26 02:11:12;;;;;;;156.48;25.15;;;-2.00;99.90;;;;;;4948524;28;20023;-66
2022/01/26 02:14:02;;;;;;;159.60;26.55;;;-1.90;99.90;;;;;;4948759;28;20101;-65
2022/01/26 02:16:44;;;;;;;119.38;23.40;;;-1.90;99.90;;;;;;4948668;28;20035;-66
2022/01/26 02:55:12;;;;;;;83.68;21.33;;;-1.70;99.90;;;;;;4952472;28;20751;-65
2022/01/26 03:00:17;;;;;;;77.05;19.85;;;-1.60;99.90;;;;;;4952694;28;20041;-64
2022/01/26 03:02:54;;;;;;;89.35;21.38;;;-1.70;99.90;;;;;;4956303;28;20046;-66
2022/01/26 03:05:24;;;;;;;76.55;20.73;;;-1.50;99.90;;;;;;4945067;28;20078;-66
2022/01/26 03:07:57;;;;;;;75.00;21.15;;;-1.50;99.90;;;;;;4951911;28;20061;-64
2022/01/26 03:10:33;;;;;;;82.35;20.48;;;-1.40;99.90;;;;;;4947966;28;20283;-64
2022/01/26 03:13:10;;;;;;;77.90;20.85;;;-1.40;99.90;;;;;;4953495;28;20039;-65
2022/01/26 03:15:42;;;;;;;69.88;19.13;;;-1.40;99.90;;;;;;4953168;28;20035;-66
2022/01/26 03:20:38;;;;;;;68.47;18.80;;;-1.50;99.90;;;;;;4950432;28;20027;-64
2022/01/26 03:28:46;;;;;;;74.43;19.08;;;-1.40;99.90;;;;;;4945563;28;20042;-66
2022/01/26 03:34:14;;;;;;;133.95;23.00;;;-1.40;99.90;;;;;;4948062;29;20078;-66
2022/01/26 03:36:49;;;;;;;80.22;21.33;;;-1.50;99.90;;;;;;4951184;28;20039;-66
2022/01/26 03:39:18;;;;;;;71.60;19.80;;;-1.60;99.90;;;;;;4950774;28;20035;-66
2022/01/26 03:41:49;;;;;;;88.70;20.70;;;-1.60;99.90;;;;;;4953564;28;20027;-66
2022/01/26 03:44:15;;;;;;;77.18;20.45;;;-1.60;99.90;;;;;;4950889;28;20035;-66
2022/01/26 03:46:42;;;;;;;141.65;23.55;;;-1.50;99.90;;;;;;4951456;28;20129;-66
2022/01/26 03:49:08;;;;;;;79.13;21.60;;;-1.50;99.90;;;;;;4950934;28;20066;-68
2022/01/26 03:51:35;;;;;;;75.03;19.67;;;-1.50;99.90;;;;;;4951345;28;20027;-66
2022/01/26 03:54:01;;;;;;;80.72;20.48;;;-1.50;99.90;;;;;;4956784;28;20046;-65
2022/01/26 03:56:27;;;;;;;85.10;21.77;;;-1.50;99.90;;;;;;4943428;29;20027;-66
2022/01/26 03:58:53;;;;;;;94.53;21.05;;;-1.50;99.90;;;;;;4950946;28;20113;-65
2022/01/26 04:01:19;;;;;;;103.18;21.58;;;-1.50;99.90;;;;;;4951894;28;20058;-64
2022/01/26 04:03:45;;;;;;;132.23;25.92;;;-1.60;99.90;;;;;;4950536;28;20357;-66
2022/01/26 04:06:10;;;;;;;113.40;22.50;;;-1.60;99.90;;;;;;4950040;28;20737;-68
2022/01/26 04:08:38;;;;;;;101.25;20.85;;;-1.60;99.90;;;;;;4949103;29;20536;-66
2022/01/26 04:13:30;;;;;;;85.03;21.20;;;-1.60;99.90;;;;;;4948885;28;20058;-64
2022/01/26 04:15:56;;;;;;;95.95;21.10;;;-1.50;99.90;;;;;;4950997;28;20396;-65
2022/01/26 04:18:28;;;;;;;92.28;22.10;;;-1.50;99.90;;;;;;4947534;28;20050;-65
2022/01/26 04:20:57;;;;;;;148.23;24.50;;;-1.50;99.90;;;;;;4946663;28;20411;-68
2022/01/26 04:26:00;;;;;;;108.30;23.05;;;-1.50;99.90;;;;;;4951482;28;20043;-64
2022/01/26 04:28:37;;;;;;;173.77;27.30;;;-1.50;99.90;;;;;;4949657;28;20381;-65
2022/01/26 04:31:03;;;;;;;105.07;21.40;;;-1.50;99.90;;;;;;4949678;28;20031;-66
2022/01/26 04:33:32;;;;;;;204.80;28.65;;;-1.40;99.90;;;;;;4954547;28;20034;-66
2022/01/26 04:35:58;;;;;;;157.30;24.45;;;-1.40;99.90;;;;;;4956627;28;20038;-67
2022/01/26 04:38:39;;;;;;;150.32;24.60;;;-1.40;99.90;;;;;;4951515;28;20035;-66
2022/01/26 04:41:25;;;;;;;338.55;32.38;;;-1.50;99.90;;;;;;4949992;28;20461;-66
2022/01/26 04:43:55;;;;;;;203.73;26.65;;;-1.40;99.90;;;;;;4950736;28;20694;-66
2022/01/26 04:46:21;;;;;;;144.98;24.63;;;-1.50;99.90;;;;;;4943568;28;20036;-65
2022/01/26 04:48:47;;;;;;;361.30;37.13;;;-1.50;99.90;;;;;;4948368;28;20035;-65
2022/01/26 04:51:14;;;;;;;197.82;29.85;;;-1.50;99.90;;;;;;4949348;28;20031;-70
2022/01/26 04:53:40;;;;;;;203.13;28.65;;;-1.50;99.90;;;;;;4951518;28;20034;-66
2022/01/26 04:56:06;;;;;;;163.48;26.27;;;-1.50;99.90;;;;;;4950622;28;20043;-65
2022/01/26 04:58:32;;;;;;;124.55;25.73;;;-1.50;99.90;;;;;;4948169;28;20031;-68
2022/01/26 05:00:58;;;;;;;151.50;29.02;;;-1.50;99.90;;;;;;4950001;28;20387;-67
2022/01/26 05:03:23;;;;;;;118.93;26.15;;;-1.40;99.90;;;;;;4943673;28;20028;-69
2022/01/26 05:05:49;;;;;;;148.43;27.13;;;-1.40;99.90;;;;;;4948676;28;20050;-68
2022/01/26 05:08:15;;;;;;;159.07;25.45;;;-1.40;99.90;;;;;;4950574;28;20051;-63
2022/01/26 05:10:43;;;;;;;173.05;26.17;;;-1.40;99.90;;;;;;4951841;28;20042;-65
2022/01/26 05:13:15;;;;;;;451.20;39.40;;;-1.40;99.90;;;;;;4944287;28;20035;-64
2022/01/26 05:15:41;;;;;;;264.63;30.70;;;-1.30;99.90;;;;;;4949707;28;20024;-66
2022/01/26 05:18:07;;;;;;;305.60;32.25;;;-1.40;99.90;;;;;;4950023;28;20534;-66
2022/01/26 05:20:34;;;;;;;220.35;29.15;;;-1.30;99.90;;;;;;4951920;28;20035;-65
2022/01/26 05:22:59;;;;;;;278.85;31.50;;;-1.40;99.90;;;;;;4948878;28;20093;-66
2022/01/26 05:25:25;;;;;;;301.38;32.85;;;-1.40;99.90;;;;;;4948124;28;20027;-64
2022/01/26 05:27:51;;;;;;;368.92;36.53;;;-1.40;99.90;;;;;;4949511;28;20035;-65
2022/01/26 05:30:17;;;;;;;340.08;35.42;;;-1.30;99.90;;;;;;4947874;28;20038;-64
2022/01/26 05:32:43;;;;;;;199.70;28.50;;;-1.30;99.90;;;;;;4948069;28;20038;-67
2022/01/26 05:35:09;;;;;;;173.93;28.40;;;-1.30;99.90;;;;;;4949317;28;20668;-65
2022/01/26 05:37:35;;;;;;;190.70;29.60;;;-1.20;99.90;;;;;;4948888;29;20034;-67
2022/01/26 05:40:02;;;;;;;189.75;28.73;;;-1.20;99.90;;;;;;4947653;28;20039;-66
2022/01/26 05:42:28;;;;;;;242.50;32.42;;;-1.30;99.90;;;;;;4947002;28;20384;-68
2022/01/26 05:44:59;;;;;;;373.77;37.13;;;-1.30;99.90;;;;;;4948470;28;20047;-66
2022/01/26 05:47:25;;;;;;;180.18;29.35;;;-1.20;99.90;;;;;;4948489;28;20032;-65
2022/01/26 05:49:51;;;;;;;118.65;26.40;;;-1.20;99.90;;;;;;4949798;28;20196;-64
2022/01/26 05:52:17;;;;;;;195.20;30.10;;;-1.20;99.90;;;;;;4948979;28;20056;-67
2022/01/26 05:54:42;;;;;;;152.43;27.88;;;-1.20;99.90;;;;;;4953430;28;20435;-67
2022/01/26 05:57:08;;;;;;;136.85;26.63;;;-1.20;99.90;;;;;;4951763;28;20035;-65
2022/01/26 05:59:34;;;;;;;169.32;27.08;;;-1.20;99.90;;;;;;4950814;28;20027;-68
2022/01/26 06:02:00;;;;;;;182.90;28.23;;;-1.10;99.90;;;;;;4951320;28;20031;-66
2022/01/26 06:04:27;;;;;;;173.60;29.23;;;-1.10;99.90;;;;;;4951842;28;20023;-66
2022/01/26 06:06:53;;;;;;;254.27;33.40;;;-1.10;99.90;;;;;;4952711;28;20035;-67
2022/01/26 06:09:19;;;;;;;204.63;30.17;;;-1.00;99.90;;;;;;4958988;28;20047;-65
2022/01/26 06:11:44;;;;;;;183.27;28.77;;;-1.10;99.90;;;;;;4953361;28;20131;-67
2022/01/26 06:14:10;;;;;;;185.13;28.45;;;-1.00;99.90;;;;;;4960493;28;20094;-66
2022/01/26 06:16:36;;;;;;;329.13;33.80;;;-1.00;99.90;;;;;;4951494;28;20042;-66
2022/01/26 06:19:01;;;;;;;291.13;34.90;;;-1.00;99.90;;;;;;4952837;28;20050;-66
2022/01/26 06:21:27;;;;;;;424.52;41.50;;;-1.00;99.90;;;;;;4952137;28;20039;-64
2022/01/26 06:23:53;;;;;;;320.67;36.53;;;-1.00;99.90;;;;;;4953430;28;20035;-64
2022/01/26 06:26:18;;;;;;;216.05;31.08;;;-1.00;99.90;;;;;;4951947;28;20046;-68
2022/01/26 06:28:44;;;;;;;291.98;35.05;;;-1.10;99.90;;;;;;4952943;28;20031;-67
2022/01/26 06:31:14;;;;;;;194.30;29.88;;;-1.00;99.90;;;;;;4951598;29;20023;-66
2022/01/26 06:33:41;;;;;;;215.23;31.77;;;-1.00;99.90;;;;;;4951420;28;20113;-65
2022/01/26 06:36:09;;;;;;;195.10;31.40;;;-1.00;99.90;;;;;;4952513;28;20054;-64
2022/01/26 06:38:35;;;;;;;194.45;32.15;;;-1.00;99.90;;;;;;4953411;28;20644;-63
2022/01/26 06:41:01;;;;;;;173.23;28.75;;;-0.90;99.90;;;;;;4952889;28;20027;-64
2022/01/26 06:43:30;;;;;;;319.00;35.45;;;-1.00;99.90;;;;;;4950778;28;20582;-64
2022/01/26 06:46:05;;;;;;;150.98;27.42;;;-0.90;99.90;;;;;;4952310;28;20078;-65
2022/01/26 06:50:58;;;;;;;224.73;31.60;;;-1.00;99.90;;;;;;4952716;28;20031;-63
2022/01/26 06:53:24;;;;;;;179.23;28.60;;;-0.90;99.90;;;;;;4950867;28;20549;-65
2022/01/26 06:55:50;;;;;;;213.23;30.42;;;-0.90;99.90;;;;;;4950658;29;20031;-66
2022/01/26 06:58:16;;;;;;;173.75;28.15;;;-0.90;99.90;;;;;;4952432;28;20391;-67
2022/01/26 07:00:42;;;;;;;202.18;28.80;;;-0.90;99.90;;;;;;4951890;28;20047;-66
2022/01/26 07:03:07;;;;;;;197.50;30.00;;;-1.00;99.90;;;;;;4951018;28;20038;-63
2022/01/26 07:05:33;;;;;;;166.25;29.55;;;-1.00;99.90;;;;;;4950213;28;20027;-66
2022/01/26 07:07:59;;;;;;;178.75;28.30;;;-1.00;99.90;;;;;;4952228;28;20062;-64
2022/01/26 07:10:25;;;;;;;162.80;28.10;;;-0.90;99.90;;;;;;4950814;28;20099;-64
2022/01/26 07:12:50;;;;;;;167.10;26.83;;;-0.90;99.90;;;;;;4951821;28;20395;-65
2022/01/26 07:23:33;;;;;;;145.68;26.02;;;-0.90;99.90;;;;;;4940928;29;20031;-67
2022/01/26 07:25:59;;;;;;;147.05;24.90;;;-0.90;99.90;;;;;;4952171;29;20054;-65
2022/01/26 07:28:27;;;;;;;132.20;25.42;;;-0.80;99.90;;;;;;4950666;29;20070;-65
2022/01/26 07:30:52;;;;;;;129.70;24.88;;;-0.80;99.90;;;;;;4951619;28;20035;-64
2022/01/26 07:33:18;;;;;;;138.75;24.58;;;-0.90;99.90;;;;;;4951160;28;20090;-70
2022/01/26 07:35:44;;;;;;;142.98;25.75;;;-0.80;99.90;;;;;;4950765;28;20035;-67
2022/01/26 07:38:09;;;;;;;202.98;28.88;;;-0.80;99.90;;;;;;4951728;28;20046;-66
2022/01/26 07:40:36;;;;;;;192.30;28.75;;;-0.80;99.90;;;;;;4948948;29;20038;-67
2022/01/26 07:43:01;;;;;;;232.30;30.15;;;-0.80;99.90;;;;;;4951796;28;20027;-67
2022/01/26 07:45:27;;;;;;;213.13;30.42;;;-0.80;99.90;;;;;;4953587;28;20031;-68
2022/01/26 07:47:55;;;;;;;247.68;30.88;;;-0.80;99.90;;;;;;4950648;28;20585;-64
2022/01/26 07:50:21;;;;;;;300.15;34.83;;;-0.80;99.90;;;;;;4950961;28;20058;-68
2022/01/26 07:52:47;;;;;;;243.98;31.15;;;-0.80;99.90;;;;;;4951202;28;20123;-66
2022/01/26 07:55:16;;;;;;;204.90;28.52;;;-0.90;99.90;;;;;;4951169;28;20055;-66
2022/01/26 07:57:44;;;;;;;260.27;32.70;;;-0.90;99.90;;;;;;4948563;28;20177;-66
2022/01/26 08:00:11;;;;;;;260.02;32.90;;;-0.90;99.90;;;;;;4947686;28;20279;-65
2022/01/26 08:02:37;;;;;;;278.77;34.17;;;-0.80;99.90;;;;;;4948769;28;20046;-64
2022/01/26 08:05:03;;;;;;;190.98;28.33;;;-0.80;99.90;;;;;;4947515;28;20732;-66
2022/01/26 08:07:29;;;;;;;193.25;30.77;;;-0.80;99.90;;;;;;4947828;28;20138;-65
2022/01/26 08:09:54;;;;;;;312.52;38.88;;;-0.80;99.90;;;;;;4948811;28;20085;-66
2022/01/26 08:12:21;;;;;;;252.05;32.83;;;-0.80;99.90;;;;;;4950807;28;20046;-67
2022/01/26 08:14:47;;;;;;;280.58;32.35;;;-0.80;99.90;;;;;;4949652;28;20089;-66
2022/01/26 08:17:16;;;;;;;286.98;34.50;;;-0.70;99.90;;;;;;4949220;28;20500;-65
2022/01/26 08:19:42;;;;;;;281.20;31.77;;;-0.70;99.90;;;;;;4949491;28;20062;-64
2022/01/26 08:22:08;;;;;;;261.58;32.83;;;-0.80;99.90;;;;;;4948803;28;20122;-67
2022/01/26 08:24:34;;;;;;;290.80;33.40;;;-0.80;99.90;;;;;;4947096;28;20031;-67
2022/01/26 08:27:08;;;;;;;259.83;33.75;;;-0.80;99.90;;;;;;4949839;28;20046;-64
2022/01/26 08:29:47;;;;;;;333.75;36.90;;;-0.80;99.90;;;;;;4949764;28;20027;-66
2022/01/26 08:32:13;;;;;;;256.73;32.10;;;-0.80;99.90;;;;;;4950233;28;20473;-66
2022/01/26 08:34:39;;;;;;;356.17;36.40;;;-0.70;99.90;;;;;;4946440;28;20129;-66
2022/01/26 08:37:05;;;;;;;446.30;40.90;;;-0.80;99.90;;;;;;4949714;28;20035;-65
2022/01/26 08:39:32;;;;;;;330.50;36.78;;;-0.80;99.90;;;;;;4944105;28;20043;-66
2022/01/26 08:41:58;;;;;;;258.58;31.88;;;-0.80;99.90;;;;;;4948811;28;20523;-64
2022/01/26 08:44:24;;;;;;;267.48;33.22;;;-0.80;99.90;;;;;;4947624;28;20043;-70
2022/01/26 08:46:50;;;;;;;230.05;30.23;;;-0.80;99.90;;;;;;4947342;28;20035;-65
2022/01/26 08:49:16;;;;;;;259.65;32.78;;;-0.80;99.90;;;;;;4947697;28;20031;-65
2022/01/26 08:51:42;;;;;;;348.92;34.90;;;-0.80;99.90;;;;;;4946619;28;20103;-66
2022/01/26 08:54:10;;;;;;;342.52;35.17;;;-0.80;99.90;;;;;;4948107;28;20020;-64
2022/01/26 08:56:37;;;;;;;256.27;34.20;;;-0.80;99.90;;;;;;4943195;28;20056;-66
2022/01/26 08:59:03;;;;;;;356.45;36.08;;;-0.90;99.90;;;;;;4948335;28;20098;-66
2022/01/26 09:01:29;;;;;;;237.52;31.35;;;-0.80;99.90;;;;;;4946393;28;20027;-66
2022/01/26 09:03:55;;;;;;;240.70;32.25;;;-0.80;99.90;;;;;;4942909;28;20063;-68
2022/01/26 09:06:21;;;;;;;189.93;30.60;;;-0.80;99.90;;;;;;4948820;28;20031;-65
2022/01/26 09:08:52;;;;;;;255.88;33.33;;;-0.80;99.90;;;;;;4946440;28;20511;-66
2022/01/26 09:11:22;;;;;;;311.70;36.67;;;-0.70;99.90;;;;;;4942441;28;20039;-67
2022/01/26 09:13:55;;;;;;;162.27;23.20;;;-0.80;99.90;;;;;;4946579;28;20039;-68
2022/01/26 09:16:23;;;;;;;284.10;34.95;;;-0.80;99.90;;;;;;4942799;28;20097;-65
2022/01/26 09:18:52;;;;;;;332.60;33.58;;;-0.80;99.90;;;;;;4946173;28;20043;-66
2022/01/26 09:21:19;;;;;;;300.00;34.08;;;-0.80;99.90;;;;;;4947845;28;20063;-66
2022/01/26 09:23:45;;;;;;;220.65;30.85;;;-0.80;99.90;;;;;;4946149;28;20031;-66
2022/01/26 09:26:11;;;;;;;211.75;29.98;;;-0.80;99.90;;;;;;4948452;28;20093;-64
2022/01/26 09:28:37;;;;;;;219.65;32.00;;;-0.70;99.90;;;;;;4944313;28;20027;-65
2022/01/26 09:31:03;;;;;;;245.75;32.45;;;-0.70;99.90;;;;;;4947938;28;20122;-64
2022/01/26 09:33:28;;;;;;;237.13;32.97;;;-0.60;99.90;;;;;;4946400;28;20055;-69
2022/01/26 09:35:54;;;;;;;424.17;39.13;;;-0.60;99.90;;;;;;4943586;28;20031;-65
2022/01/26 09:38:20;;;;;;;371.52;39.22;;;-0.70;99.90;;;;;;4940846;28;20047;-68
2022/01/26 09:40:50;;;;;;;343.15;34.75;;;-0.60;99.90;;;;;;4944196;28;20678;-67
2022/01/26 09:43:17;;;;;;;231.70;25.20;;;-0.70;99.90;;;;;;4931366;28;20019;-64
2022/01/26 09:45:47;;;;;;;509.70;45.05;;;-0.70;99.90;;;;;;4948180;28;20102;-64
2022/01/26 09:48:13;;;;;;;249.20;33.03;;;-0.70;99.90;;;;;;4943110;28;20039;-63
2022/01/26 09:50:44;;;;;;;374.50;39.65;;;-0.60;99.90;;;;;;4948145;28;20062;-67
2022/01/26 09:53:15;;;;;;;324.33;36.08;;;-0.60;99.90;;;;;;4944593;28;20023;-64
2022/01/26 09:55:43;;;;;;;360.73;35.45;;;-0.60;99.90;;;;;;4946723;28;20036;-65
2022/01/26 09:58:09;;;;;;;347.08;36.38;;;-0.60;99.90;;;;;;4947831;28;20031;-66
2022/01/26 10:00:35;;;;;;;429.25;39.15;;;-0.70;99.90;;;;;;4944474;28;20027;-67
2022/01/26 10:03:04;;;;;;;280.40;33.80;;;-0.60;99.90;;;;;;4948230;28;20050;-64
2022/01/26 10:05:44;;;;;;;199.05;30.15;;;-0.60;99.90;;;;;;4946423;28;20038;-67
2022/01/26 10:16:48;;;;;;;207.25;31.08;;;-0.50;99.90;;;;;;4948275;28;20111;-65
2022/01/26 10:18:56;;;;;;;290.03;33.30;;;-0.50;99.90;;;;;;4942232;29;20047;-66
2022/01/26 10:21:23;;;;;;;292.88;36.47;;;-0.50;99.90;;;;;;4946854;28;20410;-65
2022/01/26 10:23:49;;;;;;;226.10;29.75;;;-0.50;99.90;;;;;;4947720;28;20023;-65
2022/01/26 10:26:18;;;;;;;257.08;35.80;;;-0.50;99.90;;;;;;4947226;28;20098;-64
2022/01/26 10:28:51;;;;;;;221.05;33.75;;;-0.60;99.90;;;;;;4947140;28;20039;-66
2022/01/26 10:31:20;;;;;;;265.27;35.90;;;-0.60;99.90;;;;;;4943728;28;20051;-65
2022/01/26 10:34:16;;;;;;;184.57;30.38;;;-0.50;99.90;;;;;;4948400;28;20076;-65
2022/01/26 10:36:51;;;;;;;180.15;31.67;;;-0.50;99.90;;;;;;4946089;28;20050;-66
2022/01/26 10:39:26;;;;;;;303.83;35.80;;;-0.50;99.90;;;;;;4948598;28;20035;-67
2022/01/26 10:41:55;;;;;;;263.45;35.72;;;-0.50;99.90;;;;;;4949393;28;20211;-64
2022/01/26 10:44:52;;;;;;;215.15;34.83;;;-0.50;99.90;;;;;;4951497;28;20461;-67
2022/01/26 10:47:36;;;;;;;178.50;29.27;;;-0.40;99.90;;;;;;4949327;28;20035;-68
2022/01/26 10:53:11;;;;;;;248.07;33.85;;;-0.50;99.90;;;;;;4952132;28;20035;-66
2022/01/26 10:55:37;;;;;;;174.65;29.38;;;-0.50;99.90;;;;;;4948125;29;20064;-65
2022/01/26 10:58:04;;;;;;;236.60;34.83;;;-0.50;99.90;;;;;;4951078;28;20090;-65
2022/01/26 11:00:39;;;;;;;180.23;32.22;;;-0.40;99.90;;;;;;4949122;28;20592;-67
2022/01/26 11:03:07;;;;;;;203.05;32.92;;;-0.40;99.90;;;;;;4950949;28;20039;-65
2022/01/26 11:05:33;;;;;;;175.10;29.23;;;-0.30;99.90;;;;;;4942279;28;20028;-69
2022/01/26 11:08:00;;;;;;;218.95;33.15;;;-0.30;99.90;;;;;;4944946;28;20051;-65
2022/01/26 11:10:36;;;;;;;153.43;27.05;;;-0.30;99.90;;;;;;4948000;28;20082;-68
2022/01/26 11:13:05;;;;;;;149.27;29.35;;;-0.40;99.90;;;;;;4943316;28;20094;-66
2022/01/26 11:15:31;;;;;;;169.52;29.77;;;-0.40;99.90;;;;;;4951554;28;20032;-69
2022/01/26 11:18:09;;;;;;;155.95;30.55;;;-0.30;99.90;;;;;;4941341;28;20070;-66
2022/01/26 11:20:48;;;;;;;161.02;31.20;;;-0.20;99.90;;;;;;4952751;28;20058;-69
2022/01/26 11:23:15;;;;;;;161.15;30.10;;;-0.20;99.90;;;;;;4950690;28;20031;-65
2022/01/26 11:25:43;;;;;;;191.93;31.70;;;-0.30;99.90;;;;;;4950799;28;20027;-65
2022/01/26 11:28:19;;;;;;;197.90;32.00;;;-0.30;99.90;;;;;;4951598;28;20160;-64
2022/01/26 11:30:45;;;;;;;229.18;32.40;;;-0.20;99.90;;;;;;4951791;28;20114;-66
2022/01/26 11:33:21;;;;;;;232.88;34.65;;;-0.20;99.90;;;;;;4950980;28;20055;-65
2022/01/26 11:35:49;;;;;;;209.45;32.50;;;-0.30;99.90;;;;;;4948601;28;20484;-66
2022/01/26 11:38:40;;;;;;;166.25;28.95;;;-0.30;99.90;;;;;;4951714;28;20057;-66
2022/01/26 11:47:00;;;;;;;122.25;27.02;;;-0.20;99.90;;;;;;4951335;28;20065;-66
2022/01/26 11:49:35;;;;;;;129.15;27.70;;;-0.20;99.90;;;;;;4950273;28;20027;-66
2022/01/26 11:52:01;;;;;;;121.55;26.35;;;-0.20;99.90;;;;;;4944102;28;20027;-66
2022/01/26 11:54:53;;;;;;;113.70;24.83;;;-0.20;99.90;;;;;;4951013;28;20086;-65
2022/01/26 11:57:35;;;;;;;110.40;25.95;;;-0.20;99.90;;;;;;4951447;28;20499;-65
2022/01/26 12:00:09;;;;;;;106.03;22.02;;;-0.20;99.90;;;;;;4950977;28;20047;-65
2022/01/26 12:05:09;;;;;;;90.32;21.35;;;-0.30;99.90;;;;;;4950151;28;20512;-66
2022/01/26 12:07:48;;;;;;;105.65;23.08;;;-0.30;99.90;;;;;;4950793;28;20039;-69
2022/01/26 12:10:32;;;;;;;100.65;22.20;;;-0.20;99.90;;;;;;4943274;28;20035;-67
2022/01/26 12:12:59;;;;;;;87.90;22.45;;;-0.20;99.90;;;;;;4944480;28;20039;-66
2022/01/26 12:15:31;;;;;;;96.45;23.75;;;-0.20;99.90;;;;;;4950582;29;20362;-67
2022/01/26 12:18:16;;;;;;;100.60;23.42;;;-0.20;99.90;;;;;;4950289;28;20031;-66
2022/01/26 12:32:14;;;;;;;95.93;21.88;;;-0.20;99.90;;;;;;4949307;28;20444;-66
2022/01/26 12:42:58;;;;;;;80.15;20.17;;;-0.10;99.90;;;;;;4950246;28;20046;-69
2022/01/26 12:45:26;;;;;;;78.63;20.83;;;-0.10;99.90;;;;;;4950263;28;20038;-66
2022/01/26 12:47:54;;;;;;;72.15;19.73;;;0.00;99.90;;;;;;4946149;28;20034;-65
2022/01/26 12:50:20;;;;;;;72.63;18.92;;;0.00;99.90;;;;;;4950303;28;20023;-66
2022/01/26 12:52:51;;;;;;;79.38;19.85;;;-0.10;99.90;;;;;;4948989;28;20137;-66
2022/01/26 12:55:26;;;;;;;78.03;19.08;;;-0.10;99.90;;;;;;4950167;28;20038;-66
2022/01/26 12:57:54;;;;;;;74.07;19.08;;;-0.20;99.90;;;;;;4950951;28;20160;-68
2022/01/26 13:00:21;;;;;;;74.65;18.67;;;-0.10;99.90;;;;;;4953554;28;20027;-66
2022/01/26 13:02:47;;;;;;;71.65;20.27;;;-0.10;99.90;;;;;;4956005;28;20070;-66
2022/01/26 13:05:16;;;;;;;65.13;18.20;;;-0.10;99.90;;;;;;4949144;29;20027;-65
2022/01/26 13:07:43;;;;;;;71.15;18.63;;;-0.10;99.90;;;;;;4949487;28;20121;-66
2022/01/26 13:10:16;;;;;;;81.63;19.02;;;-0.10;99.90;;;;;;4950072;28;20035;-65
2022/01/26 13:12:42;;;;;;;67.22;18.80;;;-0.10;99.90;;;;;;4949158;28;20030;-67
2022/01/26 13:15:22;;;;;;;70.10;18.30;;;-0.10;99.90;;;;;;4949815;28;20031;-65
2022/01/26 13:17:57;;;;;;;79.35;18.50;;;-0.10;99.90;;;;;;4948526;28;20075;-66
2022/01/26 13:31:35;;;;;;;67.68;17.67;;;-0.20;99.90;;;;;;4944524;28;20066;-67
2022/01/26 13:42:07;;;;;;;76.80;19.55;;;-0.10;99.90;;;;;;4941741;29;20447;-66
2022/01/26 13:45:00;;;;;;;76.93;18.60;;;0.00;99.90;;;;;;4948842;28;20023;-64
2022/01/26 13:50:40;;;;;;;76.22;17.88;;;-0.10;99.90;;;;;;4946995;28;20118;-67
2022/01/26 13:52:50;;;;;;;65.72;18.45;;;-0.10;99.90;;;;;;4947620;28;20047;-66
2022/01/26 13:57:52;;;;;;;71.93;18.85;;;-0.10;99.90;;;;;;4947717;28;20046;-66
2022/01/26 14:00:21;;;;;;;62.78;17.13;;;-0.10;99.90;;;;;;4948761;28;20031;-65
2022/01/26 14:02:52;;;;;;;64.43;17.58;;;-0.20;99.90;;;;;;4950221;28;20103;-65
2022/01/26 14:05:18;;;;;;;58.15;16.08;;;-0.10;99.90;;;;;;4947864;28;20027;-64
2022/01/26 14:07:43;;;;;;;66.05;16.98;;;-0.20;99.90;;;;;;4951681;28;20063;-69
2022/01/26 14:10:09;;;;;;;73.88;17.23;;;-0.20;99.90;;;;;;4949131;28;20020;-66
2022/01/26 14:12:40;;;;;;;66.65;17.05;;;-0.30;99.90;;;;;;4948571;28;20027;-68
2022/01/26 14:15:08;;;;;;;62.40;16.67;;;-0.30;99.90;;;;;;4950374;28;20440;-67
2022/01/26 14:17:52;;;;;;;65.85;16.77;;;-0.30;99.90;;;;;;4951660;28;20126;-68
2022/01/26 14:25:40;;;;;;;58.92;15.55;;;-0.40;99.90;;;;;;4952637;28;20038;-65
2022/01/26 14:28:08;;;;;;;59.38;14.70;;;-0.40;99.90;;;;;;4951797;28;20023;-66
2022/01/26 15:35:18;;;;;;;46.58;12.98;;;-0.70;99.90;;;;;;4910830;28;20543;-68
2022/01/26 15:40:35;;;;;;;45.30;12.00;;;-0.70;99.90;;;;;;4949594;28;20444;-67
2022/01/26 15:51:06;;;;;;;53.45;12.55;;;-0.70;99.90;;;;;;4950818;28;20078;-67
2022/01/26 16:20:18;;;;;;;48.25;13.30;;;-0.90;99.90;;;;;;4952101;28;20137;-67
2022/01/26 16:37:40;;;;;;;52.20;13.57;;;-1.00;99.90;;;;;;4954696;28;20234;-67
2022/01/26 18:17:29;;;;;;;45.42;14.13;;;-1.00;99.90;;;;;;4959948;28;20043;-67
2022/01/26 18:38:45;;;;;;;53.03;14.90;;;-0.90;99.90;;;;;;4951749;28;20643;-66
2022/01/26 18:39:16;;;;;;;54.72;15.20;;;-1.00;99.90;;;;;;4948907;28;20512;-66
2022/01/26 18:49:33;;;;;;;59.63;15.48;;;-0.90;99.90;;;;;;4952255;28;20034;-66
2022/01/26 18:52:00;;;;;;;50.97;15.40;;;-0.90;99.90;;;;;;4952118;28;20058;-69
2022/01/26 18:54:29;;;;;;;54.70;15.80;;;-0.90;99.90;;;;;;4952024;28;20034;-65
2022/01/26 18:56:56;;;;;;;49.78;14.68;;;-0.90;99.90;;;;;;4950613;28;20090;-65
2022/01/26 18:59:22;;;;;;;51.33;14.80;;;-1.00;99.90;;;;;;4951549;28;20023;-65
2022/01/26 19:01:51;;;;;;;50.22;13.45;;;-1.00;99.90;;;;;;4949381;28;20038;-64
2022/01/26 19:04:23;;;;;;;50.53;14.45;;;-1.10;99.90;;;;;;4959285;28;20265;-65
2022/01/26 19:06:52;;;;;;;47.92;13.38;;;-1.10;99.90;;;;;;4949333;28;20452;-65
2022/01/26 19:09:22;;;;;;;58.70;15.43;;;-1.10;99.90;;;;;;4957971;28;20138;-66
2022/01/26 19:11:47;;;;;;;50.70;14.88;;;-1.10;99.90;;;;;;4952626;28;20023;-65
2022/01/26 19:14:13;;;;;;;54.13;15.80;;;-1.10;99.90;;;;;;4951073;28;20105;-65